sensor_id;sensor_type;location;lat;lon;timestamp;P1;durP1;ratioP1;P2;durP2;ratioP2
4486;SDS011;2256;48.740;9.106;2022-12-20T00:00:51;15.27;;;7.25;;
4486;SDS011;2256;48.740;9.106;2022-12-20T00:03:18;13.70;;;6.53;;
4486;SDS011;2256;48.740;9.106;2022-12-20T00:05:45;14.93;;;7.55;;
4486;SDS011;2256;48.740;9.106;2022-12-20T00:08:14;13.13;;;7.10;;
4486;SDS011;2256;48.740;9.106;2022-12-20T00:10:42;12.20;;;6.38;;
4486;SDS011;2256;48.740;9.106;2022-12-20T00:13:10;17.83;;;6.38;;
4486;SDS011;2256;48.740;9.106;2022-12-20T00:15:38;10.55;;;5.75;;
4486;SDS011;2256;48.740;9.106;2022-12-20T00:18:05;10.80;;;6.50;;
4486;SDS011;2256;48.740;9.106;2022-12-20T00:20:32;12.80;;;5.57;;
4486;SDS011;2256;48.740;9.106;2022-12-20T00:22:59;11.55;;;5.88;;
4486;SDS011;2256;48.740;9.106;2022-12-20T00:25:28;9.73;;;5.65;;
4486;SDS011;2256;48.740;9.106;2022-12-20T00:27:55;12.05;;;6.25;;
4486;SDS011;2256;48.740;9.106;2022-12-20T00:30:22;11.40;;;6.63;;
4486;SDS011;2256;48.740;9.106;2022-12-20T00:32:48;9.35;;;5.53;;
4486;SDS011;2256;48.740;9.106;2022-12-20T00:35:15;9.50;;;5.88;;
4486;SDS011;2256;48.740;9.106;2022-12-20T00:37:45;18.67;;;7.00;;
4486;SDS011;2256;48.740;9.106;2022-12-20T00:40:12;10.30;;;5.55;;
4486;SDS011;2256;48.740;9.106;2022-12-20T00:42:40;13.43;;;5.85;;
4486;SDS011;2256;48.740;9.106;2022-12-20T00:45:07;14.00;;;6.03;;
4486;SDS011;2256;48.740;9.106;2022-12-20T00:47:34;17.23;;;5.75;;
4486;SDS011;2256;48.740;9.106;2022-12-20T00:50:01;12.05;;;6.45;;
4486;SDS011;2256;48.740;9.106;2022-12-20T00:52:28;10.20;;;5.90;;
4486;SDS011;2256;48.740;9.106;2022-12-20T00:54:55;11.32;;;6.00;;
4486;SDS011;2256;48.740;9.106;2022-12-20T00:57:21;10.90;;;6.18;;
4486;SDS011;2256;48.740;9.106;2022-12-20T00:59:49;14.43;;;6.75;;
4486;SDS011;2256;48.740;9.106;2022-12-20T01:02:16;16.77;;;7.05;;
4486;SDS011;2256;48.740;9.106;2022-12-20T01:04:43;15.68;;;6.82;;
4486;SDS011;2256;48.740;9.106;2022-12-20T01:07:10;18.88;;;6.18;;
4486;SDS011;2256;48.740;9.106;2022-12-20T01:09:36;11.10;;;6.95;;
4486;SDS011;2256;48.740;9.106;2022-12-20T01:12:03;12.20;;;6.30;;
4486;SDS011;2256;48.740;9.106;2022-12-20T01:14:30;10.98;;;6.05;;
4486;SDS011;2256;48.740;9.106;2022-12-20T01:16:58;11.48;;;6.03;;
4486;SDS011;2256;48.740;9.106;2022-12-20T01:19:25;11.32;;;6.85;;
4486;SDS011;2256;48.740;9.106;2022-12-20T01:21:52;14.65;;;6.85;;
4486;SDS011;2256;48.740;9.106;2022-12-20T01:24:18;10.60;;;6.72;;
4486;SDS011;2256;48.740;9.106;2022-12-20T01:26:46;13.77;;;7.25;;
4486;SDS011;2256;48.740;9.106;2022-12-20T01:29:13;13.10;;;7.05;;
4486;SDS011;2256;48.740;9.106;2022-12-20T01:31:40;12.70;;;6.53;;
4486;SDS011;2256;48.740;9.106;2022-12-20T01:34:09;13.57;;;6.85;;
4486;SDS011;2256;48.740;9.106;2022-12-20T01:36:37;11.73;;;6.85;;
4486;SDS011;2256;48.740;9.106;2022-12-20T01:39:04;15.70;;;6.82;;
4486;SDS011;2256;48.740;9.106;2022-12-20T01:41:33;13.82;;;6.88;;
4486;SDS011;2256;48.740;9.106;2022-12-20T01:44:03;15.75;;;6.90;;
4486;SDS011;2256;48.740;9.106;2022-12-20T01:46:31;14.45;;;7.60;;
4486;SDS011;2256;48.740;9.106;2022-12-20T01:49:00;12.13;;;6.93;;
4486;SDS011;2256;48.740;9.106;2022-12-20T01:51:33;12.27;;;6.30;;
4486;SDS011;2256;48.740;9.106;2022-12-20T01:54:03;13.93;;;5.93;;
4486;SDS011;2256;48.740;9.106;2022-12-20T01:56:35;12.60;;;7.70;;
4486;SDS011;2256;48.740;9.106;2022-12-20T01:59:04;12.25;;;6.60;;
4486;SDS011;2256;48.740;9.106;2022-12-20T02:01:32;17.90;;;7.72;;
4486;SDS011;2256;48.740;9.106;2022-12-20T02:03:59;11.25;;;6.70;;
4486;SDS011;2256;48.740;9.106;2022-12-20T02:06:27;16.02;;;7.03;;
4486;SDS011;2256;48.740;9.106;2022-12-20T02:08:56;11.95;;;7.10;;
4486;SDS011;2256;48.740;9.106;2022-12-20T02:14:28;19.83;;;9.13;;
4486;SDS011;2256;48.740;9.106;2022-12-20T02:17:04;18.00;;;9.52;;
4486;SDS011;2256;48.740;9.106;2022-12-20T02:22:34;21.15;;;10.02;;
4486;SDS011;2256;48.740;9.106;2022-12-20T02:25:27;21.20;;;9.60;;
4486;SDS011;2256;48.740;9.106;2022-12-20T02:28:09;18.85;;;9.93;;
4486;SDS011;2256;48.740;9.106;2022-12-20T02:30:48;20.92;;;10.20;;
4486;SDS011;2256;48.740;9.106;2022-12-20T02:33:19;24.77;;;11.50;;
4486;SDS011;2256;48.740;9.106;2022-12-20T02:35:49;23.02;;;12.02;;
4486;SDS011;2256;48.740;9.106;2022-12-20T02:38:26;25.23;;;11.00;;
4486;SDS011;2256;48.740;9.106;2022-12-20T02:40:56;18.08;;;9.95;;
4486;SDS011;2256;48.740;9.106;2022-12-20T02:43:26;22.45;;;11.55;;
4486;SDS011;2256;48.740;9.106;2022-12-20T02:46:14;21.05;;;10.73;;
4486;SDS011;2256;48.740;9.106;2022-12-20T02:48:43;30.63;;;11.60;;
4486;SDS011;2256;48.740;9.106;2022-12-20T02:51:12;23.48;;;11.30;;
4486;SDS011;2256;48.740;9.106;2022-12-20T02:53:40;28.70;;;11.25;;
4486;SDS011;2256;48.740;9.106;2022-12-20T02:56:09;24.83;;;11.93;;
4486;SDS011;2256;48.740;9.106;2022-12-20T02:58:39;22.30;;;11.65;;
4486;SDS011;2256;48.740;9.106;2022-12-20T03:01:13;26.27;;;11.75;;
4486;SDS011;2256;48.740;9.106;2022-12-20T03:03:46;30.38;;;12.63;;
4486;SDS011;2256;48.740;9.106;2022-12-20T03:06:15;27.33;;;12.38;;
4486;SDS011;2256;48.740;9.106;2022-12-20T03:08:45;29.73;;;12.02;;
4486;SDS011;2256;48.740;9.106;2022-12-20T03:11:11;23.08;;;11.65;;
4486;SDS011;2256;48.740;9.106;2022-12-20T03:13:38;19.83;;;10.55;;
4486;SDS011;2256;48.740;9.106;2022-12-20T03:16:05;20.88;;;11.25;;
4486;SDS011;2256;48.740;9.106;2022-12-20T03:18:34;24.17;;;11.10;;
4486;SDS011;2256;48.740;9.106;2022-12-20T03:21:01;19.75;;;11.00;;
4486;SDS011;2256;48.740;9.106;2022-12-20T03:23:28;18.67;;;10.35;;
4486;SDS011;2256;48.740;9.106;2022-12-20T03:25:55;16.30;;;9.30;;
4486;SDS011;2256;48.740;9.106;2022-12-20T03:28:22;23.98;;;10.18;;
4486;SDS011;2256;48.740;9.106;2022-12-20T03:30:48;22.05;;;10.25;;
4486;SDS011;2256;48.740;9.106;2022-12-20T03:33:15;17.38;;;9.30;;
4486;SDS011;2256;48.740;9.106;2022-12-20T03:35:43;14.43;;;8.43;;
4486;SDS011;2256;48.740;9.106;2022-12-20T03:38:11;15.73;;;7.95;;
4486;SDS011;2256;48.740;9.106;2022-12-20T03:40:38;14.18;;;6.90;;
4486;SDS011;2256;48.740;9.106;2022-12-20T03:43:05;11.52;;;6.13;;
4486;SDS011;2256;48.740;9.106;2022-12-20T03:45:32;11.48;;;5.93;;
4486;SDS011;2256;48.740;9.106;2022-12-20T03:47:58;8.48;;;5.28;;
4486;SDS011;2256;48.740;9.106;2022-12-20T03:50:25;12.32;;;4.50;;
4486;SDS011;2256;48.740;9.106;2022-12-20T03:52:53;8.02;;;3.80;;
4486;SDS011;2256;48.740;9.106;2022-12-20T03:55:20;6.55;;;4.70;;
4486;SDS011;2256;48.740;9.106;2022-12-20T03:57:47;9.32;;;4.20;;
4486;SDS011;2256;48.740;9.106;2022-12-20T04:00:14;6.25;;;3.75;;
4486;SDS011;2256;48.740;9.106;2022-12-20T04:02:41;10.40;;;5.63;;
4486;SDS011;2256;48.740;9.106;2022-12-20T04:05:08;13.13;;;6.72;;
4486;SDS011;2256;48.740;9.106;2022-12-20T04:07:35;13.52;;;7.43;;
4486;SDS011;2256;48.740;9.106;2022-12-20T04:10:03;13.07;;;7.03;;
4486;SDS011;2256;48.740;9.106;2022-12-20T04:12:31;14.95;;;7.13;;
4486;SDS011;2256;48.740;9.106;2022-12-20T04:14:58;13.88;;;7.70;;
4486;SDS011;2256;48.740;9.106;2022-12-20T04:17:25;13.15;;;6.65;;
4486;SDS011;2256;48.740;9.106;2022-12-20T04:19:52;12.68;;;6.82;;
4486;SDS011;2256;48.740;9.106;2022-12-20T04:22:19;12.18;;;6.60;;
4486;SDS011;2256;48.740;9.106;2022-12-20T04:24:46;10.43;;;6.50;;
4486;SDS011;2256;48.740;9.106;2022-12-20T04:27:14;10.50;;;6.75;;
4486;SDS011;2256;48.740;9.106;2022-12-20T04:29:41;11.38;;;5.80;;
4486;SDS011;2256;48.740;9.106;2022-12-20T04:32:07;15.93;;;6.82;;
4486;SDS011;2256;48.740;9.106;2022-12-20T04:34:34;12.68;;;8.23;;
4486;SDS011;2256;48.740;9.106;2022-12-20T04:37:01;12.52;;;5.55;;
4486;SDS011;2256;48.740;9.106;2022-12-20T04:39:27;7.25;;;4.47;;
4486;SDS011;2256;48.740;9.106;2022-12-20T04:41:54;7.90;;;4.35;;
4486;SDS011;2256;48.740;9.106;2022-12-20T04:44:22;5.57;;;3.90;;
4486;SDS011;2256;48.740;9.106;2022-12-20T04:46:49;7.30;;;3.97;;
4486;SDS011;2256;48.740;9.106;2022-12-20T04:49:16;7.05;;;4.03;;
4486;SDS011;2256;48.740;9.106;2022-12-20T04:51:43;7.25;;;5.70;;
4486;SDS011;2256;48.740;9.106;2022-12-20T04:54:09;12.45;;;3.83;;
4486;SDS011;2256;48.740;9.106;2022-12-20T04:56:35;9.93;;;4.23;;
4486;SDS011;2256;48.740;9.106;2022-12-20T04:59:03;11.57;;;3.70;;
4486;SDS011;2256;48.740;9.106;2022-12-20T05:01:31;8.05;;;3.72;;
4486;SDS011;2256;48.740;9.106;2022-12-20T05:03:58;7.50;;;4.40;;
4486;SDS011;2256;48.740;9.106;2022-12-20T05:06:25;8.97;;;5.53;;
4486;SDS011;2256;48.740;9.106;2022-12-20T05:08:51;6.90;;;4.70;;
4486;SDS011;2256;48.740;9.106;2022-12-20T05:11:19;9.98;;;6.15;;
4486;SDS011;2256;48.740;9.106;2022-12-20T05:13:45;9.90;;;5.55;;
4486;SDS011;2256;48.740;9.106;2022-12-20T05:16:12;8.55;;;5.63;;
4486;SDS011;2256;48.740;9.106;2022-12-20T05:18:41;11.68;;;6.35;;
4486;SDS011;2256;48.740;9.106;2022-12-20T05:21:07;9.43;;;5.85;;
4486;SDS011;2256;48.740;9.106;2022-12-20T05:23:51;11.15;;;5.22;;
4486;SDS011;2256;48.740;9.106;2022-12-20T05:26:36;13.68;;;6.05;;
4486;SDS011;2256;48.740;9.106;2022-12-20T05:29:04;8.90;;;4.47;;
4486;SDS011;2256;48.740;9.106;2022-12-20T05:31:31;7.88;;;4.18;;
4486;SDS011;2256;48.740;9.106;2022-12-20T05:33:59;9.32;;;4.22;;
4486;SDS011;2256;48.740;9.106;2022-12-20T05:36:26;6.75;;;4.68;;
4486;SDS011;2256;48.740;9.106;2022-12-20T05:38:53;6.68;;;3.83;;
4486;SDS011;2256;48.740;9.106;2022-12-20T05:41:20;7.05;;;4.00;;
4486;SDS011;2256;48.740;9.106;2022-12-20T05:43:46;6.75;;;4.10;;
4486;SDS011;2256;48.740;9.106;2022-12-20T05:46:13;10.77;;;4.25;;
4486;SDS011;2256;48.740;9.106;2022-12-20T05:48:40;5.83;;;4.07;;
4486;SDS011;2256;48.740;9.106;2022-12-20T05:51:08;7.43;;;3.73;;
4486;SDS011;2256;48.740;9.106;2022-12-20T05:53:35;6.17;;;3.30;;
4486;SDS011;2256;48.740;9.106;2022-12-20T05:56:02;7.90;;;3.60;;
4486;SDS011;2256;48.740;9.106;2022-12-20T05:58:29;12.60;;;3.63;;
4486;SDS011;2256;48.740;9.106;2022-12-20T06:00:58;8.37;;;4.17;;
4486;SDS011;2256;48.740;9.106;2022-12-20T06:03:25;6.03;;;3.07;;
4486;SDS011;2256;48.740;9.106;2022-12-20T06:05:52;7.80;;;4.77;;
4486;SDS011;2256;48.740;9.106;2022-12-20T06:08:20;8.40;;;3.73;;
4486;SDS011;2256;48.740;9.106;2022-12-20T06:10:48;5.17;;;3.30;;
4486;SDS011;2256;48.740;9.106;2022-12-20T06:13:16;6.40;;;3.60;;
4486;SDS011;2256;48.740;9.106;2022-12-20T06:15:43;5.90;;;3.37;;
4486;SDS011;2256;48.740;9.106;2022-12-20T06:18:10;7.53;;;3.93;;
4486;SDS011;2256;48.740;9.106;2022-12-20T06:20:38;6.72;;;4.05;;
4486;SDS011;2256;48.740;9.106;2022-12-20T06:23:05;5.03;;;3.80;;
4486;SDS011;2256;48.740;9.106;2022-12-20T06:25:35;5.03;;;3.30;;
4486;SDS011;2256;48.740;9.106;2022-12-20T06:28:02;6.60;;;3.37;;
4486;SDS011;2256;48.740;9.106;2022-12-20T06:30:29;10.13;;;3.80;;
4486;SDS011;2256;48.740;9.106;2022-12-20T06:32:56;5.73;;;3.40;;
4486;SDS011;2256;48.740;9.106;2022-12-20T06:35:23;4.63;;;3.30;;
4486;SDS011;2256;48.740;9.106;2022-12-20T06:37:49;6.10;;;3.30;;
4486;SDS011;2256;48.740;9.106;2022-12-20T06:40:16;10.40;;;3.10;;
4486;SDS011;2256;48.740;9.106;2022-12-20T06:42:45;7.03;;;3.10;;
4486;SDS011;2256;48.740;9.106;2022-12-20T06:45:11;7.03;;;3.27;;
4486;SDS011;2256;48.740;9.106;2022-12-20T06:47:38;8.67;;;3.67;;
4486;SDS011;2256;48.740;9.106;2022-12-20T06:50:05;10.67;;;3.63;;
4486;SDS011;2256;48.740;9.106;2022-12-20T06:52:33;6.33;;;3.60;;
4486;SDS011;2256;48.740;9.106;2022-12-20T06:55:00;4.97;;;3.60;;
4486;SDS011;2256;48.740;9.106;2022-12-20T06:57:26;3.97;;;3.10;;
4486;SDS011;2256;48.740;9.106;2022-12-20T06:59:57;4.37;;;3.13;;
4486;SDS011;2256;48.740;9.106;2022-12-20T07:02:23;8.47;;;3.67;;
4486;SDS011;2256;48.740;9.106;2022-12-20T07:04:50;13.30;;;3.50;;
4486;SDS011;2256;48.740;9.106;2022-12-20T07:07:17;4.75;;;3.00;;
4486;SDS011;2256;48.740;9.106;2022-12-20T07:09:44;9.30;;;3.65;;
4486;SDS011;2256;48.740;9.106;2022-12-20T07:12:11;3.93;;;2.87;;
4486;SDS011;2256;48.740;9.106;2022-12-20T07:14:38;3.07;;;2.60;;
4486;SDS011;2256;48.740;9.106;2022-12-20T07:17:06;4.03;;;2.80;;
4486;SDS011;2256;48.740;9.106;2022-12-20T07:19:33;5.33;;;3.53;;
4486;SDS011;2256;48.740;9.106;2022-12-20T07:22:01;3.43;;;2.93;;
4486;SDS011;2256;48.740;9.106;2022-12-20T07:24:28;6.00;;;3.50;;
4486;SDS011;2256;48.740;9.106;2022-12-20T07:26:55;4.13;;;2.87;;
4486;SDS011;2256;48.740;9.106;2022-12-20T07:29:22;6.67;;;3.70;;
4486;SDS011;2256;48.740;9.106;2022-12-20T07:31:49;3.63;;;2.83;;
4486;SDS011;2256;48.740;9.106;2022-12-20T07:34:18;6.60;;;3.20;;
4486;SDS011;2256;48.740;9.106;2022-12-20T07:36:44;7.10;;;3.60;;
4486;SDS011;2256;48.740;9.106;2022-12-20T07:39:11;6.90;;;3.50;;
4486;SDS011;2256;48.740;9.106;2022-12-20T07:41:38;6.97;;;3.30;;
4486;SDS011;2256;48.740;9.106;2022-12-20T07:44:05;5.20;;;3.10;;
4486;SDS011;2256;48.740;9.106;2022-12-20T07:46:31;5.70;;;3.50;;
4486;SDS011;2256;48.740;9.106;2022-12-20T07:48:58;5.37;;;3.53;;
4486;SDS011;2256;48.740;9.106;2022-12-20T07:51:31;4.23;;;2.87;;
4486;SDS011;2256;48.740;9.106;2022-12-20T07:54:03;8.87;;;3.17;;
4486;SDS011;2256;48.740;9.106;2022-12-20T07:56:35;7.90;;;3.93;;
4486;SDS011;2256;48.740;9.106;2022-12-20T07:59:04;10.30;;;3.83;;
4486;SDS011;2256;48.740;9.106;2022-12-20T08:01:32;6.20;;;3.20;;
4486;SDS011;2256;48.740;9.106;2022-12-20T08:04:01;3.50;;;3.00;;
4486;SDS011;2256;48.740;9.106;2022-12-20T08:06:33;5.30;;;3.33;;
4486;SDS011;2256;48.740;9.106;2022-12-20T08:09:03;4.70;;;2.90;;
4486;SDS011;2256;48.740;9.106;2022-12-20T08:11:30;5.03;;;2.80;;
4486;SDS011;2256;48.740;9.106;2022-12-20T08:13:58;5.60;;;3.43;;
4486;SDS011;2256;48.740;9.106;2022-12-20T08:16:25;5.43;;;3.03;;
4486;SDS011;2256;48.740;9.106;2022-12-20T08:18:51;6.53;;;3.43;;
4486;SDS011;2256;48.740;9.106;2022-12-20T08:21:18;6.87;;;3.47;;
4486;SDS011;2256;48.740;9.106;2022-12-20T08:23:47;10.37;;;3.80;;
4486;SDS011;2256;48.740;9.106;2022-12-20T08:26:14;5.67;;;3.23;;
4486;SDS011;2256;48.740;9.106;2022-12-20T08:28:41;6.77;;;3.93;;
4486;SDS011;2256;48.740;9.106;2022-12-20T08:31:08;9.23;;;3.37;;
4486;SDS011;2256;48.740;9.106;2022-12-20T08:33:36;7.30;;;3.47;;
4486;SDS011;2256;48.740;9.106;2022-12-20T08:36:04;10.00;;;4.10;;
4486;SDS011;2256;48.740;9.106;2022-12-20T08:38:33;9.07;;;3.70;;
4486;SDS011;2256;48.740;9.106;2022-12-20T08:41:02;5.93;;;3.40;;
4486;SDS011;2256;48.740;9.106;2022-12-20T08:43:29;4.43;;;3.10;;
4486;SDS011;2256;48.740;9.106;2022-12-20T08:45:56;11.00;;;3.30;;
4486;SDS011;2256;48.740;9.106;2022-12-20T08:48:23;5.43;;;3.37;;
4486;SDS011;2256;48.740;9.106;2022-12-20T08:50:53;6.87;;;3.40;;
4486;SDS011;2256;48.740;9.106;2022-12-20T08:53:21;3.63;;;2.67;;
4486;SDS011;2256;48.740;9.106;2022-12-20T08:55:48;3.90;;;2.90;;
4486;SDS011;2256;48.740;9.106;2022-12-20T08:58:16;8.90;;;4.60;;
4486;SDS011;2256;48.740;9.106;2022-12-20T09:00:43;5.70;;;3.20;;
4486;SDS011;2256;48.740;9.106;2022-12-20T09:03:13;7.60;;;3.43;;
4486;SDS011;2256;48.740;9.106;2022-12-20T09:05:43;4.30;;;3.40;;
4486;SDS011;2256;48.740;9.106;2022-12-20T09:08:11;3.80;;;2.83;;
4486;SDS011;2256;48.740;9.106;2022-12-20T09:10:39;11.23;;;3.57;;
4486;SDS011;2256;48.740;9.106;2022-12-20T09:13:05;7.23;;;3.57;;
4486;SDS011;2256;48.740;9.106;2022-12-20T09:15:34;8.87;;;3.60;;
4486;SDS011;2256;48.740;9.106;2022-12-20T09:18:01;18.70;;;4.47;;
4486;SDS011;2256;48.740;9.106;2022-12-20T09:20:28;4.20;;;3.10;;
4486;SDS011;2256;48.740;9.106;2022-12-20T09:22:58;3.67;;;2.57;;
4486;SDS011;2256;48.740;9.106;2022-12-20T09:25:25;6.30;;;3.30;;
4486;SDS011;2256;48.740;9.106;2022-12-20T09:27:53;4.47;;;3.20;;
4486;SDS011;2256;48.740;9.106;2022-12-20T09:30:20;4.33;;;3.37;;
4486;SDS011;2256;48.740;9.106;2022-12-20T09:32:51;7.87;;;5.80;;
4486;SDS011;2256;48.740;9.106;2022-12-20T09:35:18;5.50;;;3.70;;
4486;SDS011;2256;48.740;9.106;2022-12-20T09:37:45;7.77;;;3.10;;
4486;SDS011;2256;48.740;9.106;2022-12-20T09:40:13;9.53;;;4.10;;
4486;SDS011;2256;48.740;9.106;2022-12-20T09:42:43;8.17;;;3.30;;
4486;SDS011;2256;48.740;9.106;2022-12-20T09:45:10;4.57;;;3.47;;
4486;SDS011;2256;48.740;9.106;2022-12-20T09:47:44;6.90;;;3.17;;
4486;SDS011;2256;48.740;9.106;2022-12-20T09:50:14;6.13;;;3.13;;
4486;SDS011;2256;48.740;9.106;2022-12-20T09:52:46;6.67;;;3.40;;
4486;SDS011;2256;48.740;9.106;2022-12-20T09:55:26;5.70;;;3.23;;
4486;SDS011;2256;48.740;9.106;2022-12-20T09:58:07;5.37;;;3.20;;
4486;SDS011;2256;48.740;9.106;2022-12-20T10:00:46;6.40;;;3.40;;
4486;SDS011;2256;48.740;9.106;2022-12-20T10:03:19;4.60;;;2.77;;
4486;SDS011;2256;48.740;9.106;2022-12-20T10:05:50;9.13;;;2.83;;
4486;SDS011;2256;48.740;9.106;2022-12-20T10:08:23;7.00;;;3.10;;
4486;SDS011;2256;48.740;9.106;2022-12-20T10:11:03;9.53;;;3.30;;
4486;SDS011;2256;48.740;9.106;2022-12-20T10:13:39;6.93;;;2.97;;
4486;SDS011;2256;48.740;9.106;2022-12-20T10:16:26;4.50;;;2.67;;
4486;SDS011;2256;48.740;9.106;2022-12-20T10:19:03;8.20;;;2.60;;
4486;SDS011;2256;48.740;9.106;2022-12-20T10:21:44;4.30;;;2.77;;
4486;SDS011;2256;48.740;9.106;2022-12-20T10:24:17;3.50;;;2.50;;
4486;SDS011;2256;48.740;9.106;2022-12-20T10:26:45;6.00;;;2.73;;
4486;SDS011;2256;48.740;9.106;2022-12-20T10:29:14;8.00;;;2.70;;
4486;SDS011;2256;48.740;9.106;2022-12-20T10:31:41;3.90;;;2.80;;
4486;SDS011;2256;48.740;9.106;2022-12-20T10:34:08;8.40;;;2.93;;
4486;SDS011;2256;48.740;9.106;2022-12-20T10:36:35;8.27;;;3.13;;
4486;SDS011;2256;48.740;9.106;2022-12-20T10:39:04;3.97;;;2.70;;
4486;SDS011;2256;48.740;9.106;2022-12-20T10:41:45;9.40;;;3.07;;
4486;SDS011;2256;48.740;9.106;2022-12-20T10:44:17;6.53;;;3.00;;
4486;SDS011;2256;48.740;9.106;2022-12-20T10:46:49;17.00;;;3.40;;
4486;SDS011;2256;48.740;9.106;2022-12-20T10:52:10;7.00;;;2.70;;
4486;SDS011;2256;48.740;9.106;2022-12-20T10:54:40;8.53;;;2.90;;
4486;SDS011;2256;48.740;9.106;2022-12-20T10:57:12;5.97;;;2.80;;
4486;SDS011;2256;48.740;9.106;2022-12-20T10:59:43;4.57;;;2.53;;
4486;SDS011;2256;48.740;9.106;2022-12-20T11:02:24;6.63;;;2.87;;
4486;SDS011;2256;48.740;9.106;2022-12-20T11:04:56;6.63;;;3.20;;
4486;SDS011;2256;48.740;9.106;2022-12-20T11:07:25;11.23;;;2.93;;
4486;SDS011;2256;48.740;9.106;2022-12-20T11:09:56;4.80;;;2.63;;
4486;SDS011;2256;48.740;9.106;2022-12-20T11:12:24;5.30;;;2.80;;
4486;SDS011;2256;48.740;9.106;2022-12-20T11:15:06;6.60;;;2.93;;
4486;SDS011;2256;48.740;9.106;2022-12-20T11:17:35;4.17;;;2.63;;
4486;SDS011;2256;48.740;9.106;2022-12-20T11:20:10;5.83;;;3.90;;
4486;SDS011;2256;48.740;9.106;2022-12-20T11:22:51;5.60;;;2.97;;
4486;SDS011;2256;48.740;9.106;2022-12-20T11:25:32;3.17;;;2.53;;
4486;SDS011;2256;48.740;9.106;2022-12-20T11:28:13;5.93;;;2.43;;
4486;SDS011;2256;48.740;9.106;2022-12-20T11:30:56;6.73;;;3.23;;
4486;SDS011;2256;48.740;9.106;2022-12-20T11:33:37;6.90;;;2.90;;
4486;SDS011;2256;48.740;9.106;2022-12-20T11:36:14;6.80;;;2.50;;
4486;SDS011;2256;48.740;9.106;2022-12-20T11:38:52;4.50;;;2.80;;
4486;SDS011;2256;48.740;9.106;2022-12-20T11:41:29;6.30;;;2.97;;
4486;SDS011;2256;48.740;9.106;2022-12-20T11:44:08;8.03;;;2.27;;
4486;SDS011;2256;48.740;9.106;2022-12-20T11:46:49;9.67;;;2.90;;
4486;SDS011;2256;48.740;9.106;2022-12-20T11:49:38;6.03;;;3.20;;
4486;SDS011;2256;48.740;9.106;2022-12-20T11:52:17;9.83;;;4.10;;
4486;SDS011;2256;48.740;9.106;2022-12-20T11:54:55;7.33;;;3.67;;
4486;SDS011;2256;48.740;9.106;2022-12-20T11:57:33;4.90;;;3.50;;
4486;SDS011;2256;48.740;9.106;2022-12-20T12:00:05;7.20;;;3.57;;
4486;SDS011;2256;48.740;9.106;2022-12-20T12:02:39;7.80;;;4.47;;
4486;SDS011;2256;48.740;9.106;2022-12-20T12:05:17;10.30;;;4.13;;
4486;SDS011;2256;48.740;9.106;2022-12-20T12:07:50;12.83;;;4.10;;
4486;SDS011;2256;48.740;9.106;2022-12-20T12:10:20;4.80;;;3.23;;
4486;SDS011;2256;48.740;9.106;2022-12-20T12:12:52;16.10;;;3.40;;
4486;SDS011;2256;48.740;9.106;2022-12-20T12:15:26;3.63;;;3.03;;
4486;SDS011;2256;48.740;9.106;2022-12-20T12:17:57;14.10;;;3.03;;
4486;SDS011;2256;48.740;9.106;2022-12-20T12:20:28;5.03;;;3.40;;
4486;SDS011;2256;48.740;9.106;2022-12-20T12:23:00;10.43;;;4.10;;
4486;SDS011;2256;48.740;9.106;2022-12-20T12:25:31;14.03;;;5.13;;
4486;SDS011;2256;48.740;9.106;2022-12-20T12:28:00;10.87;;;4.20;;
4486;SDS011;2256;48.740;9.106;2022-12-20T12:30:28;7.50;;;4.37;;
4486;SDS011;2256;48.740;9.106;2022-12-20T12:33:03;8.07;;;4.50;;
4486;SDS011;2256;48.740;9.106;2022-12-20T12:35:47;9.73;;;4.47;;
4486;SDS011;2256;48.740;9.106;2022-12-20T12:38:47;10.13;;;4.40;;
4486;SDS011;2256;48.740;9.106;2022-12-20T12:44:48;9.10;;;4.30;;
4486;SDS011;2256;48.740;9.106;2022-12-20T12:47:20;13.67;;;4.57;;
4486;SDS011;2256;48.740;9.106;2022-12-20T12:49:50;12.00;;;4.40;;
4486;SDS011;2256;48.740;9.106;2022-12-20T12:52:26;9.50;;;3.80;;
4486;SDS011;2256;48.740;9.106;2022-12-20T12:55:00;8.00;;;4.00;;
4486;SDS011;2256;48.740;9.106;2022-12-20T12:57:31;10.43;;;4.20;;
4486;SDS011;2256;48.740;9.106;2022-12-20T13:03:33;8.83;;;3.97;;
4486;SDS011;2256;48.740;9.106;2022-12-20T13:09:19;14.33;;;4.07;;
4486;SDS011;2256;48.740;9.106;2022-12-20T13:11:47;8.37;;;4.20;;
4486;SDS011;2256;48.740;9.106;2022-12-20T13:20:18;12.50;;;4.30;;
4486;SDS011;2256;48.740;9.106;2022-12-20T13:25:41;11.67;;;3.40;;
4486;SDS011;2256;48.740;9.106;2022-12-20T13:31:29;3.70;;;2.23;;
4486;SDS011;2256;48.740;9.106;2022-12-20T13:34:22;11.80;;;2.60;;
4486;SDS011;2256;48.740;9.106;2022-12-20T13:37:01;5.70;;;2.30;;
4486;SDS011;2256;48.740;9.106;2022-12-20T13:39:30;4.53;;;2.47;;
4486;SDS011;2256;48.740;9.106;2022-12-20T13:42:06;12.23;;;3.20;;
4486;SDS011;2256;48.740;9.106;2022-12-20T13:44:44;7.83;;;2.70;;
4486;SDS011;2256;48.740;9.106;2022-12-20T13:47:14;5.60;;;2.50;;
4486;SDS011;2256;48.740;9.106;2022-12-20T13:49:54;6.20;;;2.73;;
4486;SDS011;2256;48.740;9.106;2022-12-20T13:52:26;6.20;;;4.10;;
4486;SDS011;2256;48.740;9.106;2022-12-20T13:54:56;8.90;;;3.97;;
4486;SDS011;2256;48.740;9.106;2022-12-20T13:57:28;7.67;;;3.60;;
4486;SDS011;2256;48.740;9.106;2022-12-20T13:59:58;15.83;;;4.63;;
4486;SDS011;2256;48.740;9.106;2022-12-20T14:02:28;20.87;;;9.43;;
4486;SDS011;2256;48.740;9.106;2022-12-20T14:05:00;10.23;;;5.07;;
4486;SDS011;2256;48.740;9.106;2022-12-20T14:07:29;10.07;;;4.07;;
4486;SDS011;2256;48.740;9.106;2022-12-20T14:09:58;10.13;;;4.00;;
4486;SDS011;2256;48.740;9.106;2022-12-20T14:12:25;5.40;;;3.43;;
4486;SDS011;2256;48.740;9.106;2022-12-20T14:14:53;6.70;;;2.80;;
4486;SDS011;2256;48.740;9.106;2022-12-20T14:17:21;11.00;;;4.30;;
4486;SDS011;2256;48.740;9.106;2022-12-20T14:20:11;12.37;;;5.00;;
4486;SDS011;2256;48.740;9.106;2022-12-20T14:22:40;14.83;;;6.53;;
4486;SDS011;2256;48.740;9.106;2022-12-20T14:25:13;20.27;;;6.50;;
4486;SDS011;2256;48.740;9.106;2022-12-20T14:27:45;10.93;;;5.30;;
4486;SDS011;2256;48.740;9.106;2022-12-20T14:30:26;15.07;;;4.60;;
4486;SDS011;2256;48.740;9.106;2022-12-20T14:32:56;13.67;;;5.43;;
4486;SDS011;2256;48.740;9.106;2022-12-20T14:35:24;8.83;;;4.70;;
4486;SDS011;2256;48.740;9.106;2022-12-20T14:37:52;9.70;;;5.10;;
4486;SDS011;2256;48.740;9.106;2022-12-20T14:40:21;9.80;;;4.87;;
4486;SDS011;2256;48.740;9.106;2022-12-20T14:42:49;16.83;;;5.13;;
4486;SDS011;2256;48.740;9.106;2022-12-20T14:45:17;8.20;;;5.30;;
4486;SDS011;2256;48.740;9.106;2022-12-20T14:47:47;13.67;;;5.53;;
4486;SDS011;2256;48.740;9.106;2022-12-20T14:50:17;17.87;;;5.67;;
4486;SDS011;2256;48.740;9.106;2022-12-20T14:52:47;10.27;;;5.17;;
4486;SDS011;2256;48.740;9.106;2022-12-20T14:55:15;9.07;;;4.90;;
4486;SDS011;2256;48.740;9.106;2022-12-20T14:57:45;15.00;;;4.33;;
4486;SDS011;2256;48.740;9.106;2022-12-20T15:00:19;11.33;;;5.07;;
4486;SDS011;2256;48.740;9.106;2022-12-20T15:02:49;12.40;;;5.97;;
4486;SDS011;2256;48.740;9.106;2022-12-20T15:08:13;11.73;;;4.80;;
4486;SDS011;2256;48.740;9.106;2022-12-20T15:10:41;17.73;;;5.27;;
4486;SDS011;2256;48.740;9.106;2022-12-20T15:13:14;14.20;;;5.83;;
4486;SDS011;2256;48.740;9.106;2022-12-20T15:15:42;12.80;;;4.90;;
4486;SDS011;2256;48.740;9.106;2022-12-20T15:18:10;13.80;;;5.40;;
4486;SDS011;2256;48.740;9.106;2022-12-20T15:20:37;11.50;;;5.70;;
4486;SDS011;2256;48.740;9.106;2022-12-20T15:23:07;10.27;;;5.20;;
4486;SDS011;2256;48.740;9.106;2022-12-20T15:25:40;13.03;;;6.37;;
4486;SDS011;2256;48.740;9.106;2022-12-20T15:28:11;10.50;;;5.47;;
4486;SDS011;2256;48.740;9.106;2022-12-20T15:30:39;10.20;;;5.00;;
4486;SDS011;2256;48.740;9.106;2022-12-20T15:33:07;11.53;;;5.03;;
4486;SDS011;2256;48.740;9.106;2022-12-20T15:35:41;14.53;;;5.87;;
4486;SDS011;2256;48.740;9.106;2022-12-20T15:38:10;8.00;;;4.50;;
4486;SDS011;2256;48.740;9.106;2022-12-20T15:40:42;14.47;;;4.83;;
4486;SDS011;2256;48.740;9.106;2022-12-20T15:43:11;14.23;;;5.40;;
4486;SDS011;2256;48.740;9.106;2022-12-20T15:45:41;13.53;;;5.73;;
4486;SDS011;2256;48.740;9.106;2022-12-20T15:48:13;9.40;;;5.03;;
4486;SDS011;2256;48.740;9.106;2022-12-20T15:50:42;13.53;;;5.30;;
4486;SDS011;2256;48.740;9.106;2022-12-20T15:53:17;8.20;;;5.20;;
4486;SDS011;2256;48.740;9.106;2022-12-20T15:55:48;17.33;;;5.60;;
4486;SDS011;2256;48.740;9.106;2022-12-20T15:58:16;18.73;;;7.87;;